sensor_id;sensor_type;location;lat;lon;timestamp;pressure;altitude;pressure_sealevel;temperature;humidity
62655;BME280;48717;55.556;37.816;2022-11-15T00:00:08;100057.03;;;-0.74;51.62
62655;BME280;48717;55.556;37.816;2022-11-15T00:03:00;100043.44;;;-0.70;50.88
62655;BME280;48717;55.556;37.816;2022-11-15T00:05:48;100068.81;;;-0.63;51.21
62655;BME280;48717;55.556;37.816;2022-11-15T00:08:37;100064.47;;;-0.64;50.14
62655;BME280;48717;55.556;37.816;2022-11-15T00:11:33;100068.00;;;-0.62;51.31
62655;BME280;48717;55.556;37.816;2022-11-15T00:14:25;100041.66;;;-0.71;51.26
62655;BME280;48717;55.556;37.816;2022-11-15T00:17:15;100062.66;;;-0.65;50.97
62655;BME280;48717;55.556;37.816;2022-11-15T00:20:01;100062.66;;;-0.65;50.74
62655;BME280;48717;55.556;37.816;2022-11-15T00:22:53;100026.72;;;-0.95;50.15
62655;BME280;48717;55.556;37.816;2022-11-15T00:25:41;100037.22;;;-0.92;51.03
62655;BME280;48717;55.556;37.816;2022-11-15T00:28:27;100035.72;;;-0.87;50.91
62655;BME280;48717;55.556;37.816;2022-11-15T00:31:14;100052.53;;;-0.79;50.73
62655;BME280;48717;55.556;37.816;2022-11-15T00:34:00;100046.16;;;-0.85;49.32
62655;BME280;48717;55.556;37.816;2022-11-15T00:36:47;100056.09;;;-0.76;50.38
62655;BME280;48717;55.556;37.816;2022-11-15T00:39:36;99987.88;;;-1.13;49.80
62655;BME280;48717;55.556;37.816;2022-11-15T00:42:23;100043.16;;;-0.76;49.75
62655;BME280;48717;55.556;37.816;2022-11-15T00:45:09;100007.63;;;-0.97;50.07
62655;BME280;48717;55.556;37.816;2022-11-15T00:47:55;100040.00;;;-0.69;49.36
62655;BME280;48717;55.556;37.816;2022-11-15T00:50:40;100040.91;;;-0.69;49.31
62655;BME280;48717;55.556;37.816;2022-11-15T00:53:26;100025.97;;;-0.74;49.59
62655;BME280;48717;55.556;37.816;2022-11-15T00:56:13;100017.25;;;-0.76;48.77
62655;BME280;48717;55.556;37.816;2022-11-15T00:58:59;100030.72;;;-0.66;49.55
62655;BME280;48717;55.556;37.816;2022-11-15T01:01:45;100010.88;;;-0.65;49.61
62655;BME280;48717;55.556;37.816;2022-11-15T01:04:33;100016.19;;;-0.62;48.46
62655;BME280;48717;55.556;37.816;2022-11-15T01:07:19;100014.44;;;-0.63;48.69
62655;BME280;48717;55.556;37.816;2022-11-15T01:10:05;100009.09;;;-0.66;48.60
62655;BME280;48717;55.556;37.816;2022-11-15T01:12:51;100010.00;;;-0.66;50.45
62655;BME280;48717;55.556;37.816;2022-11-15T01:15:40;100011.69;;;-0.66;48.61
62655;BME280;48717;55.556;37.816;2022-11-15T01:18:27;100005.56;;;-0.68;49.76
62655;BME280;48717;55.556;37.816;2022-11-15T01:21:15;100007.91;;;-0.73;49.07
62655;BME280;48717;55.556;37.816;2022-11-15T01:24:01;100010.22;;;-0.79;49.03
62655;BME280;48717;55.556;37.816;2022-11-15T01:26:47;100003.63;;;-0.90;49.73
62655;BME280;48717;55.556;37.816;2022-11-15T01:29:33;99984.84;;;-1.05;49.13
62655;BME280;48717;55.556;37.816;2022-11-15T01:32:19;99967.63;;;-1.04;49.39
62655;BME280;48717;55.556;37.816;2022-11-15T01:35:05;99971.09;;;-1.03;50.34
62655;BME280;48717;55.556;37.816;2022-11-15T01:37:50;99969.19;;;-1.08;49.70
62655;BME280;48717;55.556;37.816;2022-11-15T01:40:36;99975.22;;;-1.07;49.23
62655;BME280;48717;55.556;37.816;2022-11-15T01:43:28;99985.59;;;-0.89;49.38
62655;BME280;48717;55.556;37.816;2022-11-15T01:46:34;99983.94;;;-0.87;48.91
62655;BME280;48717;55.556;37.816;2022-11-15T01:49:22;99980.66;;;-0.84;50.14
62655;BME280;48717;55.556;37.816;2022-11-15T01:52:13;99987.50;;;-0.85;49.63
62655;BME280;48717;55.556;37.816;2022-11-15T01:55:09;99978.91;;;-0.84;50.11
62655;BME280;48717;55.556;37.816;2022-11-15T01:57:58;99979.50;;;-0.89;50.68
62655;BME280;48717;55.556;37.816;2022-11-15T02:00:45;99971.66;;;-0.91;50.56
62655;BME280;48717;55.556;37.816;2022-11-15T02:04:04;99980.69;;;-0.83;51.94
62655;BME280;48717;55.556;37.816;2022-11-15T02:06:52;99944.47;;;-1.01;51.74
62655;BME280;48717;55.556;37.816;2022-11-15T02:09:39;99959.41;;;-0.95;51.10
62655;BME280;48717;55.556;37.816;2022-11-15T02:12:25;99965.38;;;-0.96;52.00
62655;BME280;48717;55.556;37.816;2022-11-15T02:15:11;99964.28;;;-1.01;52.49
62655;BME280;48717;55.556;37.816;2022-11-15T02:18:07;99981.75;;;-0.97;51.94
62655;BME280;48717;55.556;37.816;2022-11-15T02:21:10;99979.81;;;-1.01;51.84
62655;BME280;48717;55.556;37.816;2022-11-15T02:27:22;99980.47;;;-1.06;52.44
62655;BME280;48717;55.556;37.816;2022-11-15T02:42:45;99956.59;;;-1.18;52.55
62655;BME280;48717;55.556;37.816;2022-11-15T02:46:00;99970.66;;;-1.13;52.18
62655;BME280;48717;55.556;37.816;2022-11-15T02:48:50;99944.38;;;-1.21;52.37
62655;BME280;48717;55.556;37.816;2022-11-15T02:51:36;99909.94;;;-1.38;52.46
62655;BME280;48717;55.556;37.816;2022-11-15T02:54:25;99950.09;;;-1.10;52.67
62655;BME280;48717;55.556;37.816;2022-11-15T02:57:14;99911.50;;;-1.41;52.87
62655;BME280;48717;55.556;37.816;2022-11-15T03:00:09;99965.41;;;-1.14;52.71
62655;BME280;48717;55.556;37.816;2022-11-15T03:03:17;99957.31;;;-1.21;53.21
62655;BME280;48717;55.556;37.816;2022-11-15T03:09:13;99946.09;;;-1.21;53.35
62655;BME280;48717;55.556;37.816;2022-11-15T03:12:20;99944.47;;;-1.19;54.31
62655;BME280;48717;55.556;37.816;2022-11-15T03:15:21;99934.56;;;-1.28;53.21
62655;BME280;48717;55.556;37.816;2022-11-15T03:18:22;99949.56;;;-1.21;54.38
62655;BME280;48717;55.556;37.816;2022-11-15T03:21:11;99940.19;;;-1.19;54.16
62655;BME280;48717;55.556;37.816;2022-11-15T03:24:01;99946.09;;;-1.21;54.97
62655;BME280;48717;55.556;37.816;2022-11-15T03:26:49;99931.59;;;-1.36;54.13
62655;BME280;48717;55.556;37.816;2022-11-15T03:29:40;99905.28;;;-1.45;54.80
62655;BME280;48717;55.556;37.816;2022-11-15T03:32:32;99912.91;;;-1.30;55.04
62655;BME280;48717;55.556;37.816;2022-11-15T03:35:25;99917.53;;;-1.41;54.85
62655;BME280;48717;55.556;37.816;2022-11-15T03:38:21;99938.56;;;-1.35;54.32
62655;BME280;48717;55.556;37.816;2022-11-15T03:41:16;99943.72;;;-1.35;54.08
62655;BME280;48717;55.556;37.816;2022-11-15T03:44:29;99921.69;;;-1.45;55.01
62655;BME280;48717;55.556;37.816;2022-11-15T03:50:08;99940.31;;;-1.34;55.05
62655;BME280;48717;55.556;37.816;2022-11-15T03:52:56;99935.97;;;-1.35;53.76
62655;BME280;48717;55.556;37.816;2022-11-15T03:55:42;99927.75;;;-1.44;54.64
62655;BME280;48717;55.556;37.816;2022-11-15T03:58:28;99936.75;;;-1.36;54.86
62655;BME280;48717;55.556;37.816;2022-11-15T04:01:13;99939.13;;;-1.40;54.40
62655;BME280;48717;55.556;37.816;2022-11-15T04:03:59;99935.38;;;-1.47;54.60
62655;BME280;48717;55.556;37.816;2022-11-15T04:06:45;99938.97;;;-1.43;54.95
62655;BME280;48717;55.556;37.816;2022-11-15T04:09:30;99912.38;;;-1.59;55.06
62655;BME280;48717;55.556;37.816;2022-11-15T04:12:16;99941.66;;;-1.42;54.45
62655;BME280;48717;55.556;37.816;2022-11-15T04:15:19;99893.13;;;-1.64;54.03
62655;BME280;48717;55.556;37.816;2022-11-15T04:18:05;99924.44;;;-1.41;53.39
62655;BME280;48717;55.556;37.816;2022-11-15T04:20:50;99922.59;;;-1.44;53.86
62655;BME280;48717;55.556;37.816;2022-11-15T04:23:54;99905.47;;;-1.59;53.71
62655;BME280;48717;55.556;37.816;2022-11-15T04:26:59;99930.09;;;-1.49;52.61
62655;BME280;48717;55.556;37.816;2022-11-15T04:29:45;99931.00;;;-1.48;52.90
62655;BME280;48717;55.556;37.816;2022-11-15T04:32:30;99886.63;;;-1.74;52.07
62655;BME280;48717;55.556;37.816;2022-11-15T04:35:16;99897.44;;;-1.65;53.52
62655;BME280;48717;55.556;37.816;2022-11-15T04:38:04;99906.75;;;-1.68;52.80
62655;BME280;48717;55.556;37.816;2022-11-15T04:40:50;99924.66;;;-1.55;53.96
62655;BME280;48717;55.556;37.816;2022-11-15T04:43:36;99905.13;;;-1.66;53.86
62655;BME280;48717;55.556;37.816;2022-11-15T04:46:23;99926.41;;;-1.54;53.87
62655;BME280;48717;55.556;37.816;2022-11-15T04:49:09;99912.41;;;-1.58;53.68
62655;BME280;48717;55.556;37.816;2022-11-15T04:51:54;99907.13;;;-1.61;54.02
62655;BME280;48717;55.556;37.816;2022-11-15T04:54:40;99910.16;;;-1.51;53.20
62655;BME280;48717;55.556;37.816;2022-11-15T04:57:29;99897.19;;;-1.69;53.93
62655;BME280;48717;55.556;37.816;2022-11-15T05:00:16;99856.78;;;-1.86;54.01
62655;BME280;48717;55.556;37.816;2022-11-15T05:03:02;99909.84;;;-1.58;54.55
62655;BME280;48717;55.556;37.816;2022-11-15T05:06:06;99909.72;;;-1.61;54.80
62655;BME280;48717;55.556;37.816;2022-11-15T05:08:52;99902.91;;;-1.59;53.83
62655;BME280;48717;55.556;37.816;2022-11-15T05:11:38;99849.84;;;-1.87;53.90
62655;BME280;48717;55.556;37.816;2022-11-15T05:14:24;99908.22;;;-1.55;53.97
62655;BME280;48717;55.556;37.816;2022-11-15T05:17:10;99869.34;;;-1.75;54.00
62655;BME280;48717;55.556;37.816;2022-11-15T05:19:56;99918.56;;;-1.55;54.19
62655;BME280;48717;55.556;37.816;2022-11-15T05:22:41;99903.97;;;-1.55;53.90
62655;BME280;48717;55.556;37.816;2022-11-15T05:25:27;99915.00;;;-1.58;54.49
62655;BME280;48717;55.556;37.816;2022-11-15T05:28:13;99913.41;;;-1.55;53.27
62655;BME280;48717;55.556;37.816;2022-11-15T05:31:13;99908.22;;;-1.55;53.34
62655;BME280;48717;55.556;37.816;2022-11-15T05:33:59;99884.88;;;-1.57;53.25
62655;BME280;48717;55.556;37.816;2022-11-15T05:36:46;99867.72;;;-1.73;53.25
62655;BME280;48717;55.556;37.816;2022-11-15T05:39:32;99899.00;;;-1.50;53.20
62655;BME280;48717;55.556;37.816;2022-11-15T05:42:17;99889.31;;;-1.54;54.07
62655;BME280;48717;55.556;37.816;2022-11-15T05:45:06;99891.41;;;-1.47;54.65
62655;BME280;48717;55.556;37.816;2022-11-15T05:47:55;99895.81;;;-1.45;53.86
62655;BME280;48717;55.556;37.816;2022-11-15T05:50:43;99880.72;;;-1.53;53.05
62655;BME280;48717;55.556;37.816;2022-11-15T05:53:31;99869.69;;;-1.51;53.62
62655;BME280;48717;55.556;37.816;2022-11-15T05:56:17;99869.06;;;-1.45;53.71
62655;BME280;48717;55.556;37.816;2022-11-15T05:59:03;99885.56;;;-1.43;53.78
62655;BME280;48717;55.556;37.816;2022-11-15T06:01:49;99855.47;;;-1.59;53.86
62655;BME280;48717;55.556;37.816;2022-11-15T06:04:34;99875.78;;;-1.49;53.10
62655;BME280;48717;55.556;37.816;2022-11-15T06:07:20;99861.53;;;-1.59;52.95
62655;BME280;48717;55.556;37.816;2022-11-15T06:10:07;99856.22;;;-1.62;53.42
62655;BME280;48717;55.556;37.816;2022-11-15T06:13:04;99885.63;;;-1.60;54.37
62655;BME280;48717;55.556;37.816;2022-11-15T06:15:50;99868.16;;;-1.64;54.34
62655;BME280;48717;55.556;37.816;2022-11-15T06:18:36;99853.97;;;-1.72;54.10
62655;BME280;48717;55.556;37.816;2022-11-15T06:21:22;99857.66;;;-1.67;53.26
62655;BME280;48717;55.556;37.816;2022-11-15T06:24:08;99866.84;;;-1.55;53.15
62655;BME280;48717;55.556;37.816;2022-11-15T06:26:54;99858.13;;;-1.58;52.96
62655;BME280;48717;55.556;37.816;2022-11-15T06:29:40;99877.47;;;-1.49;53.38
62655;BME280;48717;55.556;37.816;2022-11-15T06:32:25;99863.16;;;-1.61;52.89
62655;BME280;48717;55.556;37.816;2022-11-15T06:35:11;99850.59;;;-1.53;53.46
62655;BME280;48717;55.556;37.816;2022-11-15T06:38:02;99802.72;;;-1.63;52.93
62655;BME280;48717;55.556;37.816;2022-11-15T06:40:48;99855.25;;;-1.46;52.83
62655;BME280;48717;55.556;37.816;2022-11-15T06:43:35;99813.94;;;-1.80;52.94
62655;BME280;48717;55.556;37.816;2022-11-15T06:46:21;99854.44;;;-1.63;53.68
62655;BME280;48717;55.556;37.816;2022-11-15T06:49:06;99847.31;;;-1.67;54.25
62655;BME280;48717;55.556;37.816;2022-11-15T06:51:54;99853.97;;;-1.72;53.37
62655;BME280;48717;55.556;37.816;2022-11-15T06:54:40;99843.34;;;-1.78;54.15
62655;BME280;48717;55.556;37.816;2022-11-15T06:57:26;99845.41;;;-1.71;54.25
62655;BME280;48717;55.556;37.816;2022-11-15T07:00:17;99803.69;;;-1.97;54.20
62655;BME280;48717;55.556;37.816;2022-11-15T07:03:06;99849.78;;;-1.70;53.91
62655;BME280;48717;55.556;37.816;2022-11-15T07:05:54;99843.13;;;-1.65;54.68
62655;BME280;48717;55.556;37.816;2022-11-15T07:08:40;99798.63;;;-1.94;54.60
62655;BME280;48717;55.556;37.816;2022-11-15T07:11:27;99838.03;;;-1.81;54.68
62655;BME280;48717;55.556;37.816;2022-11-15T07:14:13;99833.28;;;-1.72;54.81
62655;BME280;48717;55.556;37.816;2022-11-15T07:16:58;99840.09;;;-1.74;54.96
62655;BME280;48717;55.556;37.816;2022-11-15T07:19:44;99842.25;;;-1.84;54.91
62655;BME280;48717;55.556;37.816;2022-11-15T07:22:30;99844.66;;;-1.87;55.14
62655;BME280;48717;55.556;37.816;2022-11-15T07:25:16;99825.88;;;-2.01;54.99
62655;BME280;48717;55.556;37.816;2022-11-15T07:28:02;99831.44;;;-1.93;55.23
62655;BME280;48717;55.556;37.816;2022-11-15T07:30:48;99831.66;;;-1.88;55.08
62655;BME280;48717;55.556;37.816;2022-11-15T07:33:34;99763.25;;;-2.13;55.88
62655;BME280;48717;55.556;37.816;2022-11-15T07:36:20;99823.16;;;-1.86;55.40
62655;BME280;48717;55.556;37.816;2022-11-15T07:39:06;99818.56;;;-1.91;54.90
62655;BME280;48717;55.556;37.816;2022-11-15T07:41:51;99809.63;;;-1.98;55.01
62655;BME280;48717;55.556;37.816;2022-11-15T07:44:57;99804.63;;;-1.95;54.85
62655;BME280;48717;55.556;37.816;2022-11-15T07:47:46;99794.66;;;-1.87;55.22
62655;BME280;48717;55.556;37.816;2022-11-15T07:50:32;99808.63;;;-1.84;54.83
62655;BME280;48717;55.556;37.816;2022-11-15T07:53:18;99810.84;;;-1.73;55.18
62655;BME280;48717;55.556;37.816;2022-11-15T07:56:06;99770.09;;;-1.97;54.97
62655;BME280;48717;55.556;37.816;2022-11-15T07:58:53;99792.31;;;-1.82;54.80
62655;BME280;48717;55.556;37.816;2022-11-15T08:01:39;99790.31;;;-1.70;54.53
62655;BME280;48717;55.556;37.816;2022-11-15T08:04:24;99795.03;;;-1.61;54.36
62655;BME280;48717;55.556;37.816;2022-11-15T08:07:10;99773.47;;;-1.80;55.35
62655;BME280;48717;55.556;37.816;2022-11-15T08:09:56;99784.53;;;-1.64;54.78
62655;BME280;48717;55.556;37.816;2022-11-15T08:12:43;99777.75;;;-1.80;55.11
62655;BME280;48717;55.556;37.816;2022-11-15T08:15:30;99791.25;;;-1.68;55.27
62655;BME280;48717;55.556;37.816;2022-11-15T08:18:17;99779.50;;;-1.61;54.82
62655;BME280;48717;55.556;37.816;2022-11-15T08:21:04;99776.50;;;-1.52;54.35
62655;BME280;48717;55.556;37.816;2022-11-15T08:23:50;99774.44;;;-1.40;53.39
62655;BME280;48717;55.556;37.816;2022-11-15T08:26:36;99755.72;;;-1.54;53.98
62655;BME280;48717;55.556;37.816;2022-11-15T08:29:22;99784.81;;;-1.40;53.24
62655;BME280;48717;55.556;37.816;2022-11-15T08:32:08;99776.53;;;-1.33;53.73
62655;BME280;48717;55.556;37.816;2022-11-15T08:34:53;99755.56;;;-1.39;53.89
62655;BME280;48717;55.556;37.816;2022-11-15T08:37:39;99763.19;;;-1.22;53.09
62655;BME280;48717;55.556;37.816;2022-11-15T08:40:25;99754.81;;;-1.16;53.08
62655;BME280;48717;55.556;37.816;2022-11-15T08:43:12;99730.31;;;-1.05;53.01
62655;BME280;48717;55.556;37.816;2022-11-15T08:45:58;99730.13;;;-0.90;52.48
62655;BME280;48717;55.556;37.816;2022-11-15T08:48:45;99737.72;;;-0.73;51.60
62655;BME280;48717;55.556;37.816;2022-11-15T08:51:30;99757.72;;;-0.49;52.32
62655;BME280;48717;55.556;37.816;2022-11-15T08:54:16;99739.16;;;-0.39;51.12
62655;BME280;48717;55.556;37.816;2022-11-15T08:57:01;99746.00;;;-0.41;51.18
62655;BME280;48717;55.556;37.816;2022-11-15T08:59:47;99737.00;;;-0.28;50.78
62655;BME280;48717;55.556;37.816;2022-11-15T09:02:33;99747.00;;;-0.16;50.76
62655;BME280;48717;55.556;37.816;2022-11-15T09:05:19;99718.50;;;-0.37;50.82
62655;BME280;48717;55.556;37.816;2022-11-15T09:08:05;99700.03;;;-0.67;50.91
62655;BME280;48717;55.556;37.816;2022-11-15T09:11:11;99707.75;;;-0.68;50.78
62655;BME280;48717;55.556;37.816;2022-11-15T09:13:58;99719.88;;;-0.87;51.65
62655;BME280;48717;55.556;37.816;2022-11-15T09:16:43;99747.66;;;-0.83;51.98
62655;BME280;48717;55.556;37.816;2022-11-15T09:19:29;99738.81;;;-0.88;52.94
62655;BME280;48717;55.556;37.816;2022-11-15T09:22:14;99708.47;;;-1.12;53.45
62655;BME280;48717;55.556;37.816;2022-11-15T09:25:01;99735.66;;;-1.02;52.78
62655;BME280;48717;55.556;37.816;2022-11-15T09:27:47;99724.25;;;-1.06;53.08
62655;BME280;48717;55.556;37.816;2022-11-15T09:30:32;99705.06;;;-1.11;54.39
62655;BME280;48717;55.556;37.816;2022-11-15T09:33:19;99720.84;;;-1.05;53.52
62655;BME280;48717;55.556;37.816;2022-11-15T09:36:06;99664.59;;;-1.28;54.09
62655;BME280;48717;55.556;37.816;2022-11-15T09:38:52;99698.13;;;-1.12;53.82
62655;BME280;48717;55.556;37.816;2022-11-15T09:47:40;99704.22;;;-0.90;53.53
62655;BME280;48717;55.556;37.816;2022-11-15T09:50:49;99697.00;;;-0.97;52.63
62655;BME280;48717;55.556;37.816;2022-11-15T09:53:29;99700.66;;;-0.92;54.00
62655;BME280;48717;55.556;37.816;2022-11-15T09:56:21;99666.91;;;-1.15;54.34
62655;BME280;48717;55.556;37.816;2022-11-15T10:01:53;99693.59;;;-0.96;53.96
62655;BME280;48717;55.556;37.816;2022-11-15T10:04:25;99677.34;;;-1.13;53.88
62655;BME280;48717;55.556;37.816;2022-11-15T10:12:20;99673.56;;;-0.81;53.27
62655;BME280;48717;55.556;37.816;2022-11-15T10:14:49;99686.06;;;-0.70;54.17
62655;BME280;48717;55.556;37.816;2022-11-15T10:20:00;99683.78;;;-0.84;53.00
62655;BME280;48717;55.556;37.816;2022-11-15T10:22:43;99683.16;;;-0.78;53.21
62655;BME280;48717;55.556;37.816;2022-11-15T10:27:50;99665.56;;;-0.85;54.15
62655;BME280;48717;55.556;37.816;2022-11-15T10:30:19;99672.66;;;-0.81;53.33
62655;BME280;48717;55.556;37.816;2022-11-15T10:32:48;99668.63;;;-0.74;53.08
62655;BME280;48717;55.556;37.816;2022-11-15T10:35:22;99647.91;;;-0.74;53.69
62655;BME280;48717;55.556;37.816;2022-11-15T10:37:51;99642.63;;;-0.77;53.41
62655;BME280;48717;55.556;37.816;2022-11-15T10:40:22;99617.28;;;-0.85;53.91
62655;BME280;48717;55.556;37.816;2022-11-15T10:45:33;99608.44;;;-0.90;53.37
62655;BME280;48717;55.556;37.816;2022-11-15T10:50:44;99610.59;;;-1.01;54.30
62655;BME280;48717;55.556;37.816;2022-11-15T10:55:47;99608.88;;;-1.00;54.07
62655;BME280;48717;55.556;37.816;2022-11-15T10:58:32;99622.63;;;-1.01;53.90
62655;BME280;48717;55.556;37.816;2022-11-15T11:01:14;99618.03;;;-1.09;54.75
62655;BME280;48717;55.556;37.816;2022-11-15T11:03:43;99605.63;;;-1.16;54.31
62655;BME280;48717;55.556;37.816;2022-11-15T11:06:16;99580.06;;;-1.29;54.35
62655;BME280;48717;55.556;37.816;2022-11-15T11:11:47;99603.44;;;-1.07;54.33
62655;BME280;48717;55.556;37.816;2022-11-15T11:14:23;99551.75;;;-1.46;55.53
62655;BME280;48717;55.556;37.816;2022-11-15T11:25:35;99595.75;;;-1.25;55.57
62655;BME280;48717;55.556;37.816;2022-11-15T11:33:42;99592.00;;;-1.12;55.64
62655;BME280;48717;55.556;37.816;2022-11-15T11:39:24;99585.88;;;-1.14;56.24
62655;BME280;48717;55.556;37.816;2022-11-15T11:47:24;99589.66;;;-1.06;55.86
62655;BME280;48717;55.556;37.816;2022-11-15T11:53:12;99584.50;;;-1.06;55.20
62655;BME280;48717;55.556;37.816;2022-11-15T11:55:45;99580.69;;;-1.14;55.47
62655;BME280;48717;55.556;37.816;2022-11-15T11:58:34;99574.31;;;-1.22;56.18
62655;BME280;48717;55.556;37.816;2022-11-15T12:01:12;99551.47;;;-1.33;55.78
62655;BME280;48717;55.556;37.816;2022-11-15T12:03:52;99568.59;;;-1.15;56.12
62655;BME280;48717;55.556;37.816;2022-11-15T12:09:16;99565.06;;;-1.17;57.12
62655;BME280;48717;55.556;37.816;2022-11-15T12:14:47;99564.53;;;-1.29;57.42
62655;BME280;48717;55.556;37.816;2022-11-15T12:17:22;99537.69;;;-1.53;58.56
62655;BME280;48717;55.556;37.816;2022-11-15T12:19:52;99558.97;;;-1.39;59.36
62655;BME280;48717;55.556;37.816;2022-11-15T12:28:35;99543.53;;;-1.57;60.19
62655;BME280;48717;55.556;37.816;2022-11-15T12:33:58;99543.47;;;-1.78;60.64
62655;BME280;48717;55.556;37.816;2022-11-15T12:36:37;99538.16;;;-1.81;61.61
62655;BME280;48717;55.556;37.816;2022-11-15T12:39:09;99525.06;;;-1.86;62.36
62655;BME280;48717;55.556;37.816;2022-11-15T12:41:40;99539.66;;;-1.87;62.92
62655;BME280;48717;55.556;37.816;2022-11-15T12:47:21;99516.38;;;-2.06;63.36
62655;BME280;48717;55.556;37.816;2022-11-15T12:49:49;99531.50;;;-1.96;64.03
62655;BME280;48717;55.556;37.816;2022-11-15T12:52:16;99519.28;;;-2.00;65.24
62655;BME280;48717;55.556;37.816;2022-11-15T12:54:53;99533.38;;;-2.12;67.07
62655;BME280;48717;55.556;37.816;2022-11-15T13:00:04;99517.81;;;-2.33;70.28
62655;BME280;48717;55.556;37.816;2022-11-15T13:33:22;99457.22;;;-2.59;79.65
62655;BME280;48717;55.556;37.816;2022-11-15T13:35:53;99444.84;;;-2.67;79.86
62655;BME280;48717;55.556;37.816;2022-11-15T13:40:51;99453.84;;;-2.39;83.70
62655;BME280;48717;55.556;37.816;2022-11-15T13:48:32;99462.50;;;-2.76;82.54
62655;BME280;48717;55.556;37.816;2022-11-15T13:51:15;99464.84;;;-2.81;84.52
62655;BME280;48717;55.556;37.816;2022-11-15T13:53:45;99447.56;;;-3.02;83.72
62655;BME280;48717;55.556;37.816;2022-11-15T13:56:16;99469.81;;;-2.85;85.48
62655;BME280;48717;55.556;37.816;2022-11-15T13:58:46;99438.63;;;-3.08;85.42
62655;BME280;48717;55.556;37.816;2022-11-15T14:01:16;99454.00;;;-2.92;86.98
62655;BME280;48717;55.556;37.816;2022-11-15T14:03:53;99434.69;;;-3.00;87.33
62655;BME280;48717;55.556;37.816;2022-11-15T14:06:23;99420.69;;;-3.05;87.50
62655;BME280;48717;55.556;37.816;2022-11-15T14:09:22;99415.53;;;-3.05;87.07
62655;BME280;48717;55.556;37.816;2022-11-15T14:11:53;99414.22;;;-2.97;86.88
62655;BME280;48717;55.556;37.816;2022-11-15T14:14:23;99437.59;;;-2.94;87.07
62655;BME280;48717;55.556;37.816;2022-11-15T14:17:00;99449.66;;;-2.74;88.67
62655;BME280;48717;55.556;37.816;2022-11-15T14:27:34;99399.81;;;-2.73;89.09
62655;BME280;48717;55.556;37.816;2022-11-15T14:30:02;99435.09;;;-2.54;89.40
62655;BME280;48717;55.556;37.816;2022-11-15T14:32:47;99380.56;;;-2.80;89.91
62655;BME280;48717;55.556;37.816;2022-11-15T14:35:20;99403.41;;;-2.70;88.58
62655;BME280;48717;55.556;37.816;2022-11-15T14:37:47;99434.94;;;-2.57;88.56
62655;BME280;48717;55.556;37.816;2022-11-15T14:40:17;99420.94;;;-2.63;87.74
62655;BME280;48717;55.556;37.816;2022-11-15T14:42:45;99374.25;;;-2.87;88.56
62655;BME280;48717;55.556;37.816;2022-11-15T14:45:16;99389.25;;;-2.78;88.78
62655;BME280;48717;55.556;37.816;2022-11-15T14:47:43;99408.38;;;-2.74;88.87
62655;BME280;48717;55.556;37.816;2022-11-15T14:50:16;99404.88;;;-2.75;89.35
62655;BME280;48717;55.556;37.816;2022-11-15T14:52:43;99353.94;;;-2.99;89.54
62655;BME280;48717;55.556;37.816;2022-11-15T14:55:30;99392.66;;;-2.79;90.29
62655;BME280;48717;55.556;37.816;2022-11-15T14:57:59;99390.91;;;-2.80;90.30
62655;BME280;48717;55.556;37.816;2022-11-15T15:00:30;99379.84;;;-2.96;90.55
62655;BME280;48717;55.556;37.816;2022-11-15T15:03:02;99374.69;;;-2.96;90.39
62655;BME280;48717;55.556;37.816;2022-11-15T15:05:41;99389.66;;;-2.89;90.68
62655;BME280;48717;55.556;37.816;2022-11-15T15:08:09;99385.91;;;-2.95;90.32
62655;BME280;48717;55.556;37.816;2022-11-15T15:10:42;99374.91;;;-2.91;91.14
62655;BME280;48717;55.556;37.816;2022-11-15T15:15:43;99377.94;;;-3.00;90.53
62655;BME280;48717;55.556;37.816;2022-11-15T15:18:11;99369.00;;;-3.08;91.24
62655;BME280;48717;55.556;37.816;2022-11-15T15:20:39;99384.75;;;-3.02;91.22
62655;BME280;48717;55.556;37.816;2022-11-15T15:23:19;99374.28;;;-3.05;90.89
62655;BME280;48717;55.556;37.816;2022-11-15T15:25:47;99369.13;;;-3.05;91.80
62655;BME280;48717;55.556;37.816;2022-11-15T15:28:16;99356.88;;;-3.09;91.97
62655;BME280;48717;55.556;37.816;2022-11-15T15:30:43;99351.44;;;-3.16;91.89
62655;BME280;48717;55.556;37.816;2022-11-15T15:33:10;99372.78;;;-3.00;92.23
62655;BME280;48717;55.556;37.816;2022-11-15T15:35:38;99371.91;;;-3.00;91.49
62655;BME280;48717;55.556;37.816;2022-11-15T15:38:05;99369.41;;;-2.99;91.73
62655;BME280;48717;55.556;37.816;2022-11-15T15:40:35;99344.66;;;-3.13;92.26
62655;BME280;48717;55.556;37.816;2022-11-15T15:43:02;99332.31;;;-3.21;91.79
62655;BME280;48717;55.556;37.816;2022-11-15T15:45:30;99356.28;;;-3.04;91.67
62655;BME280;48717;55.556;37.816;2022-11-15T15:47:58;99353.19;;;-2.96;92.65
62655;BME280;48717;55.556;37.816;2022-11-15T15:50:31;99323.16;;;-3.14;92.40
62655;BME280;48717;55.556;37.816;2022-11-15T15:53:00;99338.56;;;-2.96;92.20
62655;BME280;48717;55.556;37.816;2022-11-15T15:55:28;99295.66;;;-3.13;92.23
62655;BME280;48717;55.556;37.816;2022-11-15T15:57:56;99314.94;;;-3.05;92.93
62655;BME280;48717;55.556;37.816;2022-11-15T16:00:24;99329.91;;;-2.98;92.30
62655;BME280;48717;55.556;37.816;2022-11-15T16:02:54;99303.38;;;-3.13;92.02
62655;BME280;48717;55.556;37.816;2022-11-15T16:05:22;99319.44;;;-3.01;92.12
62655;BME280;48717;55.556;37.816;2022-11-15T16:07:49;99317.06;;;-2.96;93.07
62655;BME280;48717;55.556;37.816;2022-11-15T16:10:28;99279.09;;;-3.19;93.41
62655;BME280;48717;55.556;37.816;2022-11-15T16:12:56;99325.34;;;-3.04;93.22
62655;BME280;48717;55.556;37.816;2022-11-15T16:15:25;99311.53;;;-3.04;93.44
62655;BME280;48717;55.556;37.816;2022-11-15T16:17:55;99312.38;;;-3.05;93.29
62655;BME280;48717;55.556;37.816;2022-11-15T16:20:32;99307.34;;;-3.02;92.94
62655;BME280;48717;55.556;37.816;2022-11-15T16:23:01;99301.94;;;-3.08;93.46
62655;BME280;48717;55.556;37.816;2022-11-15T16:25:48;99305.72;;;-3.00;92.77
62655;BME280;48717;55.556;37.816;2022-11-15T16:30:58;99315.91;;;-3.03;93.14
62655;BME280;48717;55.556;37.816;2022-11-15T16:33:25;99301.38;;;-3.01;93.60
62655;BME280;48717;55.556;37.816;2022-11-15T16:35:52;99275.84;;;-3.15;93.70
62655;BME280;48717;55.556;37.816;2022-11-15T16:38:19;99294.59;;;-2.99;94.01